sensor_id;sensor_type;location;lat;lon;timestamp;P1;durP1;ratioP1;P2;durP2;ratioP2
63110;SDS011;49201;53.426;10.300;2022-09-13T00:00:48;7.27;;;6.33;;
63110;SDS011;49201;53.426;10.300;2022-09-13T00:03:15;7.53;;;5.97;;
63110;SDS011;49201;53.426;10.300;2022-09-13T00:05:41;6.70;;;6.00;;
63110;SDS011;49201;53.426;10.300;2022-09-13T00:08:06;6.83;;;6.03;;
63110;SDS011;49201;53.426;10.300;2022-09-13T00:10:33;6.43;;;5.63;;
63110;SDS011;49201;53.426;10.300;2022-09-13T00:13:00;6.17;;;5.30;;
63110;SDS011;49201;53.426;10.300;2022-09-13T00:15:26;6.67;;;6.07;;
63110;SDS011;49201;53.426;10.300;2022-09-13T00:17:52;8.73;;;5.73;;
63110;SDS011;49201;53.426;10.300;2022-09-13T00:20:17;6.50;;;5.90;;
63110;SDS011;49201;53.426;10.300;2022-09-13T00:22:43;6.23;;;5.60;;
63110;SDS011;49201;53.426;10.300;2022-09-13T00:25:08;5.87;;;5.20;;
63110;SDS011;49201;53.426;10.300;2022-09-13T00:27:34;5.93;;;5.37;;
63110;SDS011;49201;53.426;10.300;2022-09-13T00:30:01;8.53;;;5.37;;
63110;SDS011;49201;53.426;10.300;2022-09-13T00:32:29;6.13;;;5.53;;
63110;SDS011;49201;53.426;10.300;2022-09-13T00:34:54;5.53;;;5.13;;
63110;SDS011;49201;53.426;10.300;2022-09-13T00:37:20;5.80;;;4.80;;
63110;SDS011;49201;53.426;10.300;2022-09-13T00:39:46;6.00;;;5.40;;
63110;SDS011;49201;53.426;10.300;2022-09-13T00:42:12;8.37;;;5.80;;
63110;SDS011;49201;53.426;10.300;2022-09-13T00:49:55;5.90;;;5.40;;
63110;SDS011;49201;53.426;10.300;2022-09-13T00:52:29;7.13;;;5.37;;
63110;SDS011;49201;53.426;10.300;2022-09-13T00:55:00;7.27;;;6.33;;
63110;SDS011;49201;53.426;10.300;2022-09-13T00:57:30;6.23;;;5.63;;
63110;SDS011;49201;53.426;10.300;2022-09-13T01:00:04;9.97;;;6.03;;
63110;SDS011;49201;53.426;10.300;2022-09-13T01:02:36;8.10;;;5.53;;
63110;SDS011;49201;53.426;10.300;2022-09-13T01:05:04;6.93;;;5.10;;
63110;SDS011;49201;53.426;10.300;2022-09-13T01:07:30;7.00;;;5.30;;
63110;SDS011;49201;53.426;10.300;2022-09-13T01:09:55;6.63;;;5.40;;
63110;SDS011;49201;53.426;10.300;2022-09-13T01:12:26;8.30;;;5.73;;
63110;SDS011;49201;53.426;10.300;2022-09-13T01:14:58;6.57;;;5.83;;
63110;SDS011;49201;53.426;10.300;2022-09-13T01:17:26;7.53;;;6.43;;
63110;SDS011;49201;53.426;10.300;2022-09-13T01:19:53;8.53;;;5.87;;
63110;SDS011;49201;53.426;10.300;2022-09-13T01:23:05;8.67;;;6.53;;
63110;SDS011;49201;53.426;10.300;2022-09-13T01:39:45;7.33;;;6.60;;
63110;SDS011;49201;53.426;10.300;2022-09-13T01:51:08;9.33;;;6.93;;
63110;SDS011;49201;53.426;10.300;2022-09-13T01:56:28;8.17;;;6.93;;
63110;SDS011;49201;53.426;10.300;2022-09-13T01:59:03;7.27;;;6.57;;
63110;SDS011;49201;53.426;10.300;2022-09-13T02:01:37;8.60;;;7.13;;
63110;SDS011;49201;53.426;10.300;2022-09-13T02:04:08;8.40;;;7.43;;
63110;SDS011;49201;53.426;10.300;2022-09-13T02:06:45;8.97;;;7.33;;
63110;SDS011;49201;53.426;10.300;2022-09-13T02:09:21;8.00;;;7.20;;
63110;SDS011;49201;53.426;10.300;2022-09-13T02:11:56;8.93;;;7.90;;
63110;SDS011;49201;53.426;10.300;2022-09-13T02:14:28;9.07;;;7.60;;
63110;SDS011;49201;53.426;10.300;2022-09-13T02:17:03;8.97;;;8.07;;
63110;SDS011;49201;53.426;10.300;2022-09-13T02:19:37;8.47;;;7.67;;
63110;SDS011;49201;53.426;10.300;2022-09-13T02:22:07;8.93;;;8.10;;
63110;SDS011;49201;53.426;10.300;2022-09-13T02:24:39;8.53;;;7.47;;
63110;SDS011;49201;53.426;10.300;2022-09-13T02:27:11;9.07;;;8.17;;
63110;SDS011;49201;53.426;10.300;2022-09-13T02:29:41;10.67;;;8.27;;
63110;SDS011;49201;53.426;10.300;2022-09-13T02:32:14;9.80;;;8.80;;
63110;SDS011;49201;53.426;10.300;2022-09-13T02:34:46;8.70;;;7.80;;
63110;SDS011;49201;53.426;10.300;2022-09-13T02:37:16;9.00;;;7.93;;
63110;SDS011;49201;53.426;10.300;2022-09-13T02:39:45;10.27;;;8.13;;
63110;SDS011;49201;53.426;10.300;2022-09-13T02:42:23;8.40;;;7.47;;
63110;SDS011;49201;53.426;10.300;2022-09-13T02:44:58;8.90;;;7.60;;
63110;SDS011;49201;53.426;10.300;2022-09-13T02:47:39;8.43;;;7.67;;
63110;SDS011;49201;53.426;10.300;2022-09-13T02:53:20;9.17;;;8.33;;
63110;SDS011;49201;53.426;10.300;2022-09-13T02:56:14;8.80;;;7.83;;
63110;SDS011;49201;53.426;10.300;2022-09-13T02:58:51;9.70;;;8.07;;
63110;SDS011;49201;53.426;10.300;2022-09-13T03:01:25;11.47;;;8.33;;
63110;SDS011;49201;53.426;10.300;2022-09-13T03:03:51;11.90;;;8.20;;
63110;SDS011;49201;53.426;10.300;2022-09-13T03:06:21;8.87;;;7.97;;
63110;SDS011;49201;53.426;10.300;2022-09-13T03:08:51;10.83;;;8.17;;
63110;SDS011;49201;53.426;10.300;2022-09-13T03:14:26;10.87;;;8.90;;
63110;SDS011;49201;53.426;10.300;2022-09-13T03:17:09;9.43;;;8.40;;
63110;SDS011;49201;53.426;10.300;2022-09-13T03:30:21;10.93;;;9.43;;
63110;SDS011;49201;53.426;10.300;2022-09-13T03:32:50;11.83;;;9.97;;
63110;SDS011;49201;53.426;10.300;2022-09-13T03:40:47;11.27;;;10.20;;
63110;SDS011;49201;53.426;10.300;2022-09-13T03:43:19;12.57;;;10.00;;
63110;SDS011;49201;53.426;10.300;2022-09-13T03:45:54;11.13;;;10.00;;
63110;SDS011;49201;53.426;10.300;2022-09-13T03:48:24;10.63;;;9.43;;
63110;SDS011;49201;53.426;10.300;2022-09-13T03:50:51;11.33;;;10.13;;
63110;SDS011;49201;53.426;10.300;2022-09-13T03:53:21;11.20;;;10.07;;
63110;SDS011;49201;53.426;10.300;2022-09-13T03:55:49;13.83;;;10.37;;
63110;SDS011;49201;53.426;10.300;2022-09-13T03:58:18;10.80;;;9.70;;
63110;SDS011;49201;53.426;10.300;2022-09-13T04:00:45;11.83;;;10.17;;
63110;SDS011;49201;53.426;10.300;2022-09-13T04:03:16;13.80;;;11.10;;
63110;SDS011;49201;53.426;10.300;2022-09-13T04:05:45;12.17;;;10.10;;
63110;SDS011;49201;53.426;10.300;2022-09-13T04:08:14;12.27;;;10.30;;
63110;SDS011;49201;53.426;10.300;2022-09-13T04:10:49;11.40;;;10.20;;
63110;SDS011;49201;53.426;10.300;2022-09-13T04:13:16;11.47;;;10.00;;
63110;SDS011;49201;53.426;10.300;2022-09-13T04:15:44;11.90;;;10.67;;
63110;SDS011;49201;53.426;10.300;2022-09-13T04:18:10;12.47;;;10.33;;
63110;SDS011;49201;53.426;10.300;2022-09-13T04:20:36;12.67;;;10.47;;
63110;SDS011;49201;53.426;10.300;2022-09-13T04:23:01;12.50;;;10.83;;
63110;SDS011;49201;53.426;10.300;2022-09-13T04:25:27;13.27;;;11.03;;
63110;SDS011;49201;53.426;10.300;2022-09-13T04:27:53;12.57;;;10.93;;
63110;SDS011;49201;53.426;10.300;2022-09-13T04:30:19;12.00;;;10.50;;
63110;SDS011;49201;53.426;10.300;2022-09-13T04:32:46;11.43;;;10.20;;
63110;SDS011;49201;53.426;10.300;2022-09-13T04:35:11;14.60;;;11.70;;
63110;SDS011;49201;53.426;10.300;2022-09-13T04:37:37;12.87;;;11.53;;
63110;SDS011;49201;53.426;10.300;2022-09-13T04:40:04;13.70;;;11.80;;
63110;SDS011;49201;53.426;10.300;2022-09-13T04:42:33;12.33;;;11.03;;
63110;SDS011;49201;53.426;10.300;2022-09-13T04:44:58;16.37;;;11.87;;
63110;SDS011;49201;53.426;10.300;2022-09-13T04:47:24;12.17;;;10.97;;
63110;SDS011;49201;53.426;10.300;2022-09-13T04:49:49;13.23;;;11.50;;
63110;SDS011;49201;53.426;10.300;2022-09-13T04:52:15;12.73;;;11.27;;
63110;SDS011;49201;53.426;10.300;2022-09-13T04:54:40;13.20;;;10.90;;
63110;SDS011;49201;53.426;10.300;2022-09-13T04:57:06;15.70;;;12.53;;
63110;SDS011;49201;53.426;10.300;2022-09-13T04:59:31;16.57;;;12.77;;
63110;SDS011;49201;53.426;10.300;2022-09-13T05:01:57;15.50;;;12.50;;
63110;SDS011;49201;53.426;10.300;2022-09-13T05:04:22;13.23;;;11.93;;
63110;SDS011;49201;53.426;10.300;2022-09-13T05:06:48;13.90;;;12.13;;
63110;SDS011;49201;53.426;10.300;2022-09-13T05:09:13;14.00;;;12.33;;
63110;SDS011;49201;53.426;10.300;2022-09-13T05:11:39;16.50;;;13.27;;
63110;SDS011;49201;53.426;10.300;2022-09-13T05:14:05;16.33;;;14.20;;
63110;SDS011;49201;53.426;10.300;2022-09-13T05:16:34;18.20;;;14.40;;
63110;SDS011;49201;53.426;10.300;2022-09-13T05:19:00;18.17;;;14.07;;
63110;SDS011;49201;53.426;10.300;2022-09-13T05:21:26;19.37;;;15.40;;
63110;SDS011;49201;53.426;10.300;2022-09-13T05:23:53;17.53;;;14.07;;
63110;SDS011;49201;53.426;10.300;2022-09-13T05:26:19;18.10;;;15.13;;
63110;SDS011;49201;53.426;10.300;2022-09-13T05:28:46;17.27;;;15.33;;
63110;SDS011;49201;53.426;10.300;2022-09-13T05:31:14;16.07;;;14.33;;
63110;SDS011;49201;53.426;10.300;2022-09-13T05:33:42;16.93;;;14.70;;
63110;SDS011;49201;53.426;10.300;2022-09-13T05:36:08;18.63;;;15.20;;
63110;SDS011;49201;53.426;10.300;2022-09-13T05:38:33;17.33;;;14.60;;
63110;SDS011;49201;53.426;10.300;2022-09-13T05:41:00;18.33;;;14.93;;
63110;SDS011;49201;53.426;10.300;2022-09-13T05:43:28;17.87;;;15.07;;
63110;SDS011;49201;53.426;10.300;2022-09-13T05:48:29;16.30;;;14.43;;
63110;SDS011;49201;53.426;10.300;2022-09-13T05:50:56;22.67;;;16.40;;
63110;SDS011;49201;53.426;10.300;2022-09-13T05:53:27;21.43;;;16.43;;
63110;SDS011;49201;53.426;10.300;2022-09-13T05:55:53;21.87;;;17.10;;
63110;SDS011;49201;53.426;10.300;2022-09-13T05:58:18;25.27;;;19.43;;
63110;SDS011;49201;53.426;10.300;2022-09-13T06:00:43;26.63;;;19.57;;
63110;SDS011;49201;53.426;10.300;2022-09-13T06:03:09;26.03;;;20.33;;
63110;SDS011;49201;53.426;10.300;2022-09-13T06:05:34;27.33;;;20.53;;
63110;SDS011;49201;53.426;10.300;2022-09-13T06:08:00;28.83;;;21.07;;
63110;SDS011;49201;53.426;10.300;2022-09-13T06:10:25;28.53;;;20.97;;
63110;SDS011;49201;53.426;10.300;2022-09-13T06:12:51;30.17;;;21.70;;
63110;SDS011;49201;53.426;10.300;2022-09-13T06:15:16;29.43;;;20.83;;
63110;SDS011;49201;53.426;10.300;2022-09-13T06:17:41;27.70;;;21.87;;
63110;SDS011;49201;53.426;10.300;2022-09-13T06:20:07;25.60;;;19.97;;
63110;SDS011;49201;53.426;10.300;2022-09-13T06:22:33;30.50;;;22.00;;
63110;SDS011;49201;53.426;10.300;2022-09-13T06:24:59;30.93;;;22.77;;
63110;SDS011;49201;53.426;10.300;2022-09-13T06:27:25;28.67;;;22.03;;
63110;SDS011;49201;53.426;10.300;2022-09-13T06:29:50;26.10;;;21.50;;
63110;SDS011;49201;53.426;10.300;2022-09-13T06:32:15;31.17;;;21.77;;
63110;SDS011;49201;53.426;10.300;2022-09-13T06:34:41;28.37;;;21.33;;
63110;SDS011;49201;53.426;10.300;2022-09-13T06:37:06;31.33;;;21.60;;
63110;SDS011;49201;53.426;10.300;2022-09-13T06:39:32;28.00;;;22.53;;
63110;SDS011;49201;53.426;10.300;2022-09-13T06:41:58;27.90;;;22.40;;
63110;SDS011;49201;53.426;10.300;2022-09-13T06:44:37;29.37;;;22.33;;
63110;SDS011;49201;53.426;10.300;2022-09-13T06:47:02;30.57;;;22.90;;
63110;SDS011;49201;53.426;10.300;2022-09-13T06:49:28;29.10;;;22.47;;
63110;SDS011;49201;53.426;10.300;2022-09-13T06:51:55;30.63;;;22.30;;
63110;SDS011;49201;53.426;10.300;2022-09-13T06:54:21;30.90;;;22.57;;
63110;SDS011;49201;53.426;10.300;2022-09-13T06:56:47;28.07;;;22.73;;
63110;SDS011;49201;53.426;10.300;2022-09-13T06:59:12;28.03;;;21.97;;
63110;SDS011;49201;53.426;10.300;2022-09-13T07:01:38;27.07;;;21.60;;
63110;SDS011;49201;53.426;10.300;2022-09-13T07:04:11;30.90;;;23.20;;
63110;SDS011;49201;53.426;10.300;2022-09-13T07:06:38;30.33;;;23.47;;
63110;SDS011;49201;53.426;10.300;2022-09-13T07:09:06;29.87;;;23.00;;
63110;SDS011;49201;53.426;10.300;2022-09-13T07:11:35;33.27;;;24.60;;
63110;SDS011;49201;53.426;10.300;2022-09-13T07:14:03;30.00;;;23.37;;
63110;SDS011;49201;53.426;10.300;2022-09-13T07:16:31;30.40;;;22.43;;
63110;SDS011;49201;53.426;10.300;2022-09-13T07:19:00;28.33;;;22.97;;
63110;SDS011;49201;53.426;10.300;2022-09-13T07:21:29;29.30;;;21.33;;
63110;SDS011;49201;53.426;10.300;2022-09-13T07:23:55;28.00;;;22.20;;
63110;SDS011;49201;53.426;10.300;2022-09-13T07:26:21;26.70;;;21.80;;
63110;SDS011;49201;53.426;10.300;2022-09-13T07:28:48;26.73;;;21.97;;
63110;SDS011;49201;53.426;10.300;2022-09-13T07:31:17;23.40;;;19.83;;
63110;SDS011;49201;53.426;10.300;2022-09-13T07:33:52;27.53;;;21.00;;
63110;SDS011;49201;53.426;10.300;2022-09-13T07:36:19;25.37;;;20.97;;
63110;SDS011;49201;53.426;10.300;2022-09-13T07:38:45;20.97;;;18.20;;
63110;SDS011;49201;53.426;10.300;2022-09-13T07:41:11;21.73;;;17.93;;
63110;SDS011;49201;53.426;10.300;2022-09-13T07:43:39;23.90;;;19.47;;
63110;SDS011;49201;53.426;10.300;2022-09-13T07:46:08;24.50;;;20.77;;
63110;SDS011;49201;53.426;10.300;2022-09-13T07:48:37;23.20;;;19.53;;
63110;SDS011;49201;53.426;10.300;2022-09-13T07:51:11;23.23;;;18.87;;
63110;SDS011;49201;53.426;10.300;2022-09-13T07:53:38;23.67;;;19.43;;
63110;SDS011;49201;53.426;10.300;2022-09-13T07:56:06;22.43;;;18.27;;
63110;SDS011;49201;53.426;10.300;2022-09-13T07:58:33;22.67;;;18.53;;
63110;SDS011;49201;53.426;10.300;2022-09-13T08:01:03;22.07;;;17.93;;
63110;SDS011;49201;53.426;10.300;2022-09-13T08:03:31;21.63;;;17.40;;
63110;SDS011;49201;53.426;10.300;2022-09-13T08:05:59;22.70;;;17.27;;
63110;SDS011;49201;53.426;10.300;2022-09-13T08:08:26;21.90;;;16.40;;
63110;SDS011;49201;53.426;10.300;2022-09-13T08:10:52;16.30;;;14.07;;
63110;SDS011;49201;53.426;10.300;2022-09-13T08:13:17;18.93;;;13.10;;
63110;SDS011;49201;53.426;10.300;2022-09-13T08:15:43;18.00;;;14.30;;
63110;SDS011;49201;53.426;10.300;2022-09-13T08:18:08;18.33;;;13.47;;
63110;SDS011;49201;53.426;10.300;2022-09-13T08:20:35;20.57;;;14.37;;
63110;SDS011;49201;53.426;10.300;2022-09-13T08:23:02;16.23;;;13.17;;
63110;SDS011;49201;53.426;10.300;2022-09-13T08:25:30;16.67;;;14.23;;
63110;SDS011;49201;53.426;10.300;2022-09-13T08:27:58;17.23;;;13.60;;
63110;SDS011;49201;53.426;10.300;2022-09-13T08:30:23;16.83;;;13.13;;
63110;SDS011;49201;53.426;10.300;2022-09-13T08:32:49;20.13;;;12.70;;
63110;SDS011;49201;53.426;10.300;2022-09-13T08:35:15;19.80;;;13.60;;
63110;SDS011;49201;53.426;10.300;2022-09-13T08:37:41;16.57;;;13.53;;
63110;SDS011;49201;53.426;10.300;2022-09-13T08:40:06;14.77;;;9.47;;
63110;SDS011;49201;53.426;10.300;2022-09-13T08:42:55;16.17;;;8.20;;
63110;SDS011;49201;53.426;10.300;2022-09-13T08:45:24;10.77;;;7.23;;
63110;SDS011;49201;53.426;10.300;2022-09-13T08:47:51;10.60;;;6.53;;
63110;SDS011;49201;53.426;10.300;2022-09-13T08:50:34;9.63;;;5.83;;
63110;SDS011;49201;53.426;10.300;2022-09-13T08:53:15;8.00;;;5.40;;
63110;SDS011;49201;53.426;10.300;2022-09-13T09:04:11;8.03;;;5.20;;
63110;SDS011;49201;53.426;10.300;2022-09-13T09:06:47;9.67;;;4.70;;
63110;SDS011;49201;53.426;10.300;2022-09-13T09:09:15;11.10;;;4.63;;
63110;SDS011;49201;53.426;10.300;2022-09-13T09:14:37;8.30;;;3.33;;
63110;SDS011;49201;53.426;10.300;2022-09-13T09:17:20;6.93;;;3.80;;
63110;SDS011;49201;53.426;10.300;2022-09-13T09:19:54;11.43;;;4.10;;
63110;SDS011;49201;53.426;10.300;2022-09-13T09:22:33;9.53;;;3.73;;
63110;SDS011;49201;53.426;10.300;2022-09-13T09:25:00;7.97;;;4.40;;
63110;SDS011;49201;53.426;10.300;2022-09-13T09:27:28;11.70;;;4.50;;
63110;SDS011;49201;53.426;10.300;2022-09-13T09:29:54;6.73;;;3.40;;
63110;SDS011;49201;53.426;10.300;2022-09-13T09:35:43;11.23;;;3.13;;
63110;SDS011;49201;53.426;10.300;2022-09-13T09:40:49;8.37;;;2.33;;
63110;SDS011;49201;53.426;10.300;2022-09-13T09:43:19;5.83;;;2.03;;
63110;SDS011;49201;53.426;10.300;2022-09-13T09:45:51;9.33;;;2.13;;
63110;SDS011;49201;53.426;10.300;2022-09-13T09:48:21;5.20;;;1.50;;
63110;SDS011;49201;53.426;10.300;2022-09-13T09:50:53;10.37;;;1.90;;
63110;SDS011;49201;53.426;10.300;2022-09-13T09:53:26;7.13;;;2.10;;
63110;SDS011;49201;53.426;10.300;2022-09-13T09:58:40;5.67;;;2.07;;
63110;SDS011;49201;53.426;10.300;2022-09-13T10:01:21;3.23;;;1.77;;
63110;SDS011;49201;53.426;10.300;2022-09-13T10:06:30;5.75;;;2.13;;
63110;SDS011;49201;53.426;10.300;2022-09-13T10:14:30;5.25;;;1.50;;
63110;SDS011;49201;53.426;10.300;2022-09-13T10:19:58;3.53;;;1.52;;
63110;SDS011;49201;53.426;10.300;2022-09-13T10:22:45;5.55;;;1.42;;
63110;SDS011;49201;53.426;10.300;2022-09-13T10:25:43;7.05;;;1.60;;
63110;SDS011;49201;53.426;10.300;2022-09-13T10:28:19;3.63;;;1.40;;
63110;SDS011;49201;53.426;10.300;2022-09-13T10:33:36;3.90;;;1.33;;
63110;SDS011;49201;53.426;10.300;2022-09-13T10:36:05;5.53;;;1.33;;
63110;SDS011;49201;53.426;10.300;2022-09-13T10:38:38;7.78;;;1.85;;
63110;SDS011;49201;53.426;10.300;2022-09-13T10:41:06;3.13;;;1.05;;
63110;SDS011;49201;53.426;10.300;2022-09-13T10:43:35;6.53;;;1.20;;
63110;SDS011;49201;53.426;10.300;2022-09-13T10:46:02;4.15;;;1.25;;
63110;SDS011;49201;53.426;10.300;2022-09-13T10:48:30;6.00;;;1.48;;
63110;SDS011;49201;53.426;10.300;2022-09-13T10:53:41;5.65;;;1.63;;
63110;SDS011;49201;53.426;10.300;2022-09-13T10:56:28;6.03;;;1.50;;
63110;SDS011;49201;53.426;10.300;2022-09-13T10:59:12;3.25;;;1.17;;
63110;SDS011;49201;53.426;10.300;2022-09-13T11:01:55;2.85;;;1.20;;
63110;SDS011;49201;53.426;10.300;2022-09-13T11:04:55;5.38;;;1.55;;
63110;SDS011;49201;53.426;10.300;2022-09-13T11:13:56;4.18;;;1.38;;
63110;SDS011;49201;53.426;10.300;2022-09-13T11:21:27;3.70;;;1.20;;
63110;SDS011;49201;53.426;10.300;2022-09-13T11:26:28;4.57;;;1.17;;
63110;SDS011;49201;53.426;10.300;2022-09-13T11:31:42;3.22;;;1.10;;
63110;SDS011;49201;53.426;10.300;2022-09-13T11:34:29;5.00;;;1.10;;
63110;SDS011;49201;53.426;10.300;2022-09-13T11:42:25;3.15;;;1.05;;
63110;SDS011;49201;53.426;10.300;2022-09-13T11:45:05;4.00;;;1.38;;
63110;SDS011;49201;53.426;10.300;2022-09-13T11:50:28;4.72;;;1.30;;
63110;SDS011;49201;53.426;10.300;2022-09-13T11:53:14;3.65;;;1.30;;
63110;SDS011;49201;53.426;10.300;2022-09-13T11:55:55;5.60;;;1.23;;
63110;SDS011;49201;53.426;10.300;2022-09-13T11:58:30;4.15;;;1.25;;
63110;SDS011;49201;53.426;10.300;2022-09-13T12:01:06;2.92;;;1.08;;
63110;SDS011;49201;53.426;10.300;2022-09-13T12:06:24;4.70;;;1.20;;
63110;SDS011;49201;53.426;10.300;2022-09-13T12:09:02;4.28;;;1.33;;
63110;SDS011;49201;53.426;10.300;2022-09-13T12:11:32;4.05;;;1.27;;
63110;SDS011;49201;53.426;10.300;2022-09-13T12:14:04;4.45;;;1.17;;
63110;SDS011;49201;53.426;10.300;2022-09-13T12:19:00;3.70;;;1.20;;
63110;SDS011;49201;53.426;10.300;2022-09-13T12:21:34;4.15;;;1.30;;
63110;SDS011;49201;53.426;10.300;2022-09-13T12:24:07;4.85;;;1.42;;
63110;SDS011;49201;53.426;10.300;2022-09-13T12:29:18;4.32;;;0.98;;
63110;SDS011;49201;53.426;10.300;2022-09-13T12:31:52;3.83;;;1.02;;
63110;SDS011;49201;53.426;10.300;2022-09-13T12:34:32;6.53;;;1.02;;
63110;SDS011;49201;53.426;10.300;2022-09-13T12:59:23;4.57;;;1.10;;
63110;SDS011;49201;53.426;10.300;2022-09-13T13:01:54;3.50;;;1.27;;
63110;SDS011;49201;53.426;10.300;2022-09-13T13:07:01;6.80;;;1.20;;
63110;SDS011;49201;53.426;10.300;2022-09-13T13:09:37;3.28;;;1.00;;
63110;SDS011;49201;53.426;10.300;2022-09-13T13:12:06;5.25;;;0.95;;
63110;SDS011;49201;53.426;10.300;2022-09-13T13:33:53;5.32;;;1.25;;
63110;SDS011;49201;53.426;10.300;2022-09-13T13:36:30;7.53;;;1.42;;
63110;SDS011;49201;53.426;10.300;2022-09-13T13:41:51;7.00;;;1.50;;
63110;SDS011;49201;53.426;10.300;2022-09-13T13:46:43;4.53;;;1.47;;
63110;SDS011;49201;53.426;10.300;2022-09-13T14:02:48;6.67;;;1.50;;
63110;SDS011;49201;53.426;10.300;2022-09-13T14:21:42;5.17;;;1.13;;
63110;SDS011;49201;53.426;10.300;2022-09-13T14:26:41;5.03;;;1.50;;
63110;SDS011;49201;53.426;10.300;2022-09-13T14:29:07;5.17;;;1.33;;
63110;SDS011;49201;53.426;10.300;2022-09-13T14:31:33;4.87;;;1.57;;
63110;SDS011;49201;53.426;10.300;2022-09-13T14:34:00;6.20;;;1.27;;
63110;SDS011;49201;53.426;10.300;2022-09-13T14:36:26;5.20;;;1.53;;
63110;SDS011;49201;53.426;10.300;2022-09-13T14:38:54;6.33;;;1.40;;
63110;SDS011;49201;53.426;10.300;2022-09-13T14:41:28;5.20;;;1.43;;
63110;SDS011;49201;53.426;10.300;2022-09-13T14:44:01;4.87;;;1.17;;
63110;SDS011;49201;53.426;10.300;2022-09-13T14:46:40;7.40;;;1.40;;
63110;SDS011;49201;53.426;10.300;2022-09-13T14:49:13;7.97;;;1.33;;
63110;SDS011;49201;53.426;10.300;2022-09-13T14:51:54;3.47;;;1.40;;
63110;SDS011;49201;53.426;10.300;2022-09-13T14:54:25;6.10;;;1.30;;
63110;SDS011;49201;53.426;10.300;2022-09-13T14:56:59;6.87;;;1.60;;
63110;SDS011;49201;53.426;10.300;2022-09-13T14:59:31;6.47;;;1.30;;
63110;SDS011;49201;53.426;10.300;2022-09-13T15:02:06;4.55;;;1.40;;
63110;SDS011;49201;53.426;10.300;2022-09-13T15:04:40;5.28;;;1.20;;
63110;SDS011;49201;53.426;10.300;2022-09-13T15:07:20;5.20;;;1.40;;
63110;SDS011;49201;53.426;10.300;2022-09-13T15:10:08;4.90;;;1.20;;
63110;SDS011;49201;53.426;10.300;2022-09-13T15:12:54;7.88;;;1.50;;
63110;SDS011;49201;53.426;10.300;2022-09-13T15:15:33;4.85;;;1.35;;
63110;SDS011;49201;53.426;10.300;2022-09-13T15:23:16;6.97;;;1.70;;
63110;SDS011;49201;53.426;10.300;2022-09-13T15:25:47;7.63;;;1.73;;
63110;SDS011;49201;53.426;10.300;2022-09-13T15:28:20;4.17;;;1.30;;
63110;SDS011;49201;53.426;10.300;2022-09-13T15:30:53;7.70;;;1.73;;
63110;SDS011;49201;53.426;10.300;2022-09-13T15:33:22;6.33;;;1.63;;
63110;SDS011;49201;53.426;10.300;2022-09-13T15:35:50;8.67;;;1.90;;
63110;SDS011;49201;53.426;10.300;2022-09-13T15:38:28;7.57;;;1.60;;
63110;SDS011;49201;53.426;10.300;2022-09-13T15:40:57;6.93;;;2.03;;
63110;SDS011;49201;53.426;10.300;2022-09-13T15:43:28;6.53;;;1.70;;
63110;SDS011;49201;53.426;10.300;2022-09-13T15:45:55;8.50;;;1.80;;
63110;SDS011;49201;53.426;10.300;2022-09-13T15:48:24;5.63;;;1.73;;
63110;SDS011;49201;53.426;10.300;2022-09-13T15:51:06;5.60;;;1.43;;
63110;SDS011;49201;53.426;10.300;2022-09-13T15:53:42;7.77;;;1.80;;
63110;SDS011;49201;53.426;10.300;2022-09-13T15:56:16;7.67;;;1.80;;
63110;SDS011;49201;53.426;10.300;2022-09-13T15:58:44;6.73;;;1.60;;
63110;SDS011;49201;53.426;10.300;2022-09-13T16:01:14;6.77;;;1.60;;
63110;SDS011;49201;53.426;10.300;2022-09-13T16:03:41;10.40;;;2.10;;
63110;SDS011;49201;53.426;10.300;2022-09-13T16:06:06;6.37;;;1.53;;
63110;SDS011;49201;53.426;10.300;2022-09-13T16:08:36;8.17;;;1.70;;
63110;SDS011;49201;53.426;10.300;2022-09-13T16:11:02;7.83;;;1.90;;
63110;SDS011;49201;53.426;10.300;2022-09-13T16:13:29;6.93;;;1.67;;
63110;SDS011;49201;53.426;10.300;2022-09-13T16:15:54;7.73;;;1.80;;
63110;SDS011;49201;53.426;10.300;2022-09-13T16:18:21;7.70;;;2.27;;
63110;SDS011;49201;53.426;10.300;2022-09-13T16:20:47;7.07;;;2.00;;
63110;SDS011;49201;53.426;10.300;2022-09-13T16:23:13;7.63;;;1.40;;
63110;SDS011;49201;53.426;10.300;2022-09-13T16:25:38;6.73;;;1.83;;
63110;SDS011;49201;53.426;10.300;2022-09-13T16:28:04;9.30;;;2.30;;
63110;SDS011;49201;53.426;10.300;2022-09-13T16:30:30;8.10;;;1.77;;
63110;SDS011;49201;53.426;10.300;2022-09-13T16:32:58;11.57;;;1.90;;
63110;SDS011;49201;53.426;10.300;2022-09-13T16:35:25;7.23;;;1.73;;
63110;SDS011;49201;53.426;10.300;2022-09-13T16:37:53;10.17;;;1.93;;
63110;SDS011;49201;53.426;10.300;2022-09-13T16:40:19;8.77;;;1.97;;
63110;SDS011;49201;53.426;10.300;2022-09-13T16:42:45;9.00;;;1.63;;
63110;SDS011;49201;53.426;10.300;2022-09-13T16:45:11;11.23;;;2.00;;
63110;SDS011;49201;53.426;10.300;2022-09-13T16:47:37;8.10;;;2.00;;
63110;SDS011;49201;53.426;10.300;2022-09-13T16:50:04;10.50;;;1.97;;
63110;SDS011;49201;53.426;10.300;2022-09-13T16:52:30;7.40;;;1.90;;
63110;SDS011;49201;53.426;10.300;2022-09-13T16:54:56;7.87;;;2.27;;
63110;SDS011;49201;53.426;10.300;2022-09-13T16:57:22;6.63;;;2.33;;
63110;SDS011;49201;53.426;10.300;2022-09-13T16:59:49;10.70;;;2.40;;
63110;SDS011;49201;53.426;10.300;2022-09-13T17:02:17;8.93;;;1.70;;
63110;SDS011;49201;53.426;10.300;2022-09-13T17:04:43;5.80;;;1.53;;
63110;SDS011;49201;53.426;10.300;2022-09-13T17:07:09;4.80;;;1.70;;
63110;SDS011;49201;53.426;10.300;2022-09-13T17:09:35;5.63;;;1.70;;
63110;SDS011;49201;53.426;10.300;2022-09-13T17:12:00;6.63;;;1.50;;
63110;SDS011;49201;53.426;10.300;2022-09-13T17:14:27;5.57;;;1.53;;
63110;SDS011;49201;53.426;10.300;2022-09-13T17:16:53;7.37;;;1.83;;
63110;SDS011;49201;53.426;10.300;2022-09-13T17:19:24;6.87;;;1.60;;
63110;SDS011;49201;53.426;10.300;2022-09-13T17:21:54;5.97;;;1.53;;
63110;SDS011;49201;53.426;10.300;2022-09-13T17:24:22;7.50;;;1.50;;
63110;SDS011;49201;53.426;10.300;2022-09-13T17:26:48;6.27;;;1.27;;
63110;SDS011;49201;53.426;10.300;2022-09-13T17:29:14;9.13;;;1.57;;
63110;SDS011;49201;53.426;10.300;2022-09-13T17:31:39;5.17;;;1.20;;
63110;SDS011;49201;53.426;10.300;2022-09-13T17:34:07;6.77;;;1.00;;
63110;SDS011;49201;53.426;10.300;2022-09-13T17:36:34;5.17;;;1.20;;
63110;SDS011;49201;53.426;10.300;2022-09-13T17:38:59;5.30;;;1.03;;
63110;SDS011;49201;53.426;10.300;2022-09-13T17:41:25;5.50;;;1.47;;
63110;SDS011;49201;53.426;10.300;2022-09-13T17:43:51;5.30;;;1.37;;
63110;SDS011;49201;53.426;10.300;2022-09-13T17:46:19;5.13;;;1.50;;
63110;SDS011;49201;53.426;10.300;2022-09-13T17:48:46;7.83;;;1.57;;
63110;SDS011;49201;53.426;10.300;2022-09-13T17:51:14;7.03;;;1.37;;
63110;SDS011;49201;53.426;10.300;2022-09-13T17:53:45;6.63;;;1.20;;
63110;SDS011;49201;53.426;10.300;2022-09-13T17:56:31;4.67;;;1.50;;
63110;SDS011;49201;53.426;10.300;2022-09-13T17:59:19;6.23;;;1.50;;
63110;SDS011;49201;53.426;10.300;2022-09-13T18:01:52;6.40;;;1.40;;
63110;SDS011;49201;53.426;10.300;2022-09-13T18:04:22;11.93;;;2.00;;
63110;SDS011;49201;53.426;10.300;2022-09-13T18:06:51;7.77;;;1.50;;
63110;SDS011;49201;53.426;10.300;2022-09-13T18:09:17;4.67;;;1.50;;
63110;SDS011;49201;53.426;10.300;2022-09-13T18:11:43;8.53;;;2.10;;
63110;SDS011;49201;53.426;10.300;2022-09-13T18:14:13;5.43;;;1.67;;